sensor_id;sensor_type;location;lat;lon;timestamp;pressure;altitude;pressure_sealevel;temperature;humidity
50636;BME280;36598;46.054;11.130;2023-02-24T05:01:53;98974.56;;;8.39;73.65
50636;BME280;36598;46.054;11.130;2023-02-24T05:04:18;98965.56;;;8.31;73.57
50636;BME280;36598;46.054;11.130;2023-02-24T05:06:44;98966.13;;;8.60;72.38
50636;BME280;36598;46.054;11.130;2023-02-24T05:09:13;98966.50;;;8.66;72.32
50636;BME280;36598;46.054;11.130;2023-02-24T05:11:41;98961.66;;;8.77;71.65
50636;BME280;36598;46.054;11.130;2023-02-24T05:14:08;98954.00;;;8.50;72.38
50636;BME280;36598;46.054;11.130;2023-02-24T05:16:33;98950.13;;;8.44;72.92
50636;BME280;36598;46.054;11.130;2023-02-24T05:18:58;98947.94;;;8.70;72.21
50636;BME280;36598;46.054;11.130;2023-02-24T05:21:42;98947.00;;;8.87;71.42
50636;BME280;36598;46.054;11.130;2023-02-24T05:24:07;98939.94;;;8.83;71.67
50636;BME280;36598;46.054;11.130;2023-02-24T05:26:35;98944.66;;;8.82;71.46
50636;BME280;36598;46.054;11.130;2023-02-24T05:29:02;98946.41;;;8.65;72.32
50636;BME280;36598;46.054;11.130;2023-02-24T05:31:28;98938.44;;;8.74;72.26
50636;BME280;36598;46.054;11.130;2023-02-24T05:33:58;98934.88;;;8.25;73.70
50636;BME280;36598;46.054;11.130;2023-02-24T05:36:27;98933.50;;;7.96;75.03
50636;BME280;36598;46.054;11.130;2023-02-24T05:38:53;98931.94;;;7.95;74.98
50636;BME280;36598;46.054;11.130;2023-02-24T05:41:22;98928.84;;;7.86;75.44
50636;BME280;36598;46.054;11.130;2023-02-24T05:43:53;98928.69;;;8.11;75.04
50636;BME280;36598;46.054;11.130;2023-02-24T05:46:22;98935.00;;;8.11;74.73
50636;BME280;36598;46.054;11.130;2023-02-24T05:48:55;98925.38;;;8.34;73.48
50636;BME280;36598;46.054;11.130;2023-02-24T05:51:24;98917.38;;;8.50;72.60
50636;BME280;36598;46.054;11.130;2023-02-24T05:53:50;98918.22;;;8.43;72.71
50636;BME280;36598;46.054;11.130;2023-02-24T05:56:19;98918.03;;;8.65;71.61
50636;BME280;36598;46.054;11.130;2023-02-24T05:58:45;98927.59;;;8.53;71.70
50636;BME280;36598;46.054;11.130;2023-02-24T06:01:11;98923.97;;;8.63;71.94
50636;BME280;36598;46.054;11.130;2023-02-24T06:03:40;98932.63;;;8.65;71.22
50636;BME280;36598;46.054;11.130;2023-02-24T06:06:10;98923.53;;;8.65;72.07
50636;BME280;36598;46.054;11.130;2023-02-24T06:08:36;98931.72;;;8.75;71.29
50636;BME280;36598;46.054;11.130;2023-02-24T06:11:13;98923.59;;;8.61;71.88
50636;BME280;36598;46.054;11.130;2023-02-24T06:13:42;98931.41;;;8.70;71.56
50636;BME280;36598;46.054;11.130;2023-02-24T06:16:14;98932.63;;;8.65;71.48
50636;BME280;36598;46.054;11.130;2023-02-24T06:18:40;98927.81;;;8.73;71.36
50636;BME280;36598;46.054;11.130;2023-02-24T06:21:05;98930.69;;;8.62;71.34
50636;BME280;36598;46.054;11.130;2023-02-24T06:23:37;98925.53;;;8.61;71.67
50636;BME280;36598;46.054;11.130;2023-02-24T06:26:03;98923.34;;;8.86;70.86
50636;BME280;36598;46.054;11.130;2023-02-24T06:28:29;98921.91;;;8.74;71.12
50636;BME280;36598;46.054;11.130;2023-02-24T06:30:55;98919.63;;;8.62;70.77
50636;BME280;36598;46.054;11.130;2023-02-24T06:33:20;98927.06;;;8.69;71.30
50636;BME280;36598;46.054;11.130;2023-02-24T06:35:46;98924.75;;;8.60;70.99
50636;BME280;36598;46.054;11.130;2023-02-24T06:38:11;98927.88;;;9.03;70.49
50636;BME280;36598;46.054;11.130;2023-02-24T06:40:38;98926.53;;;8.81;70.25
50636;BME280;36598;46.054;11.130;2023-02-24T06:43:04;98934.91;;;8.74;71.34
50636;BME280;36598;46.054;11.130;2023-02-24T06:45:29;98929.94;;;8.55;72.27
50636;BME280;36598;46.054;11.130;2023-02-24T06:47:56;98931.13;;;8.57;71.61
50636;BME280;36598;46.054;11.130;2023-02-24T06:50:22;98934.81;;;8.40;73.05
50636;BME280;36598;46.054;11.130;2023-02-24T06:52:47;98929.22;;;8.47;72.22
50636;BME280;36598;46.054;11.130;2023-02-24T06:55:13;98926.00;;;8.52;72.39
50636;BME280;36598;46.054;11.130;2023-02-24T07:00:17;98916.38;;;9.12;70.23
50636;BME280;36598;46.054;11.130;2023-02-24T07:02:46;98926.28;;;9.06;69.81
50636;BME280;36598;46.054;11.130;2023-02-24T07:05:12;98924.94;;;8.84;70.30
50636;BME280;36598;46.054;11.130;2023-02-24T07:07:39;98919.03;;;9.19;69.44
50636;BME280;36598;46.054;11.130;2023-02-24T07:10:10;98929.97;;;8.96;69.62
50636;BME280;36598;46.054;11.130;2023-02-24T07:12:36;98930.38;;;9.28;69.54
50636;BME280;36598;46.054;11.130;2023-02-24T07:15:01;98934.09;;;9.76;68.08
50636;BME280;36598;46.054;11.130;2023-02-24T07:17:26;98930.38;;;9.59;68.43
50636;BME280;36598;46.054;11.130;2023-02-24T07:19:51;98943.84;;;9.57;68.55
50636;BME280;36598;46.054;11.130;2023-02-24T07:22:18;98953.13;;;9.02;68.77
50636;BME280;36598;46.054;11.130;2023-02-24T07:24:49;98938.75;;;8.84;69.65
50636;BME280;36598;46.054;11.130;2023-02-24T07:27:14;98939.50;;;9.25;68.15
50636;BME280;36598;46.054;11.130;2023-02-24T07:29:46;98938.78;;;9.52;66.73
50636;BME280;36598;46.054;11.130;2023-02-24T07:32:11;98939.00;;;9.34;67.95
50636;BME280;36598;46.054;11.130;2023-02-24T07:34:37;98937.25;;;9.13;68.37
50636;BME280;36598;46.054;11.130;2023-02-24T07:37:03;98944.56;;;9.31;68.29
50636;BME280;36598;46.054;11.130;2023-02-24T07:39:31;98948.31;;;9.78;67.20
50636;BME280;36598;46.054;11.130;2023-02-24T07:41:57;98953.38;;;9.18;68.65
50636;BME280;36598;46.054;11.130;2023-02-24T07:44:23;98952.19;;;9.16;68.73
50636;BME280;36598;46.054;11.130;2023-02-24T07:46:49;98957.66;;;9.23;67.49
50636;BME280;36598;46.054;11.130;2023-02-24T07:49:16;98950.34;;;9.40;68.06
50636;BME280;36598;46.054;11.130;2023-02-24T07:51:43;98960.78;;;9.25;67.80
50636;BME280;36598;46.054;11.130;2023-02-24T07:54:09;98949.94;;;10.30;64.84
50636;BME280;36598;46.054;11.130;2023-02-24T07:56:36;98947.06;;;10.10;64.88
50636;BME280;36598;46.054;11.130;2023-02-24T07:59:09;98942.22;;;10.17;64.14
50636;BME280;36598;46.054;11.130;2023-02-24T08:01:39;98938.75;;;10.10;64.32
50636;BME280;36598;46.054;11.130;2023-02-24T08:04:06;98944.78;;;9.43;65.87
50636;BME280;36598;46.054;11.130;2023-02-24T08:06:34;98940.66;;;10.43;62.66
50636;BME280;36598;46.054;11.130;2023-02-24T08:09:03;98931.66;;;10.83;61.86
50636;BME280;36598;46.054;11.130;2023-02-24T08:14:12;98930.66;;;12.61;56.18
50636;BME280;36598;46.054;11.130;2023-02-24T08:16:41;98931.00;;;13.09;54.53
50636;BME280;36598;46.054;11.130;2023-02-24T08:19:08;98939.94;;;12.38;55.56
50636;BME280;36598;46.054;11.130;2023-02-24T08:21:43;98941.31;;;12.14;56.40
50636;BME280;36598;46.054;11.130;2023-02-24T08:24:23;98933.19;;;11.87;57.48
50636;BME280;36598;46.054;11.130;2023-02-24T08:26:54;98935.47;;;11.72;58.04
50636;BME280;36598;46.054;11.130;2023-02-24T08:29:32;98932.63;;;11.56;58.10
50636;BME280;36598;46.054;11.130;2023-02-24T08:32:06;98935.69;;;11.21;59.56
50636;BME280;36598;46.054;11.130;2023-02-24T08:34:33;98927.53;;;11.54;58.17
50636;BME280;36598;46.054;11.130;2023-02-24T08:36:58;98928.44;;;11.08;59.68
50636;BME280;36598;46.054;11.130;2023-02-24T08:39:25;98923.31;;;11.66;58.46
50636;BME280;36598;46.054;11.130;2023-02-24T08:41:54;98918.06;;;12.57;56.08
50636;BME280;36598;46.054;11.130;2023-02-24T08:44:20;98908.47;;;12.90;54.28
50636;BME280;36598;46.054;11.130;2023-02-24T08:46:48;98903.41;;;13.98;50.77
50636;BME280;36598;46.054;11.130;2023-02-24T08:49:17;98898.47;;;15.44;47.59
50636;BME280;36598;46.054;11.130;2023-02-24T08:51:43;98897.56;;;15.25;47.41
50636;BME280;36598;46.054;11.130;2023-02-24T08:54:12;98896.28;;;16.51;43.76
50636;BME280;36598;46.054;11.130;2023-02-24T08:56:42;98882.03;;;18.35;40.34
50636;BME280;36598;46.054;11.130;2023-02-24T08:59:08;98885.63;;;18.83;38.87
50636;BME280;36598;46.054;11.130;2023-02-24T09:01:39;98876.66;;;16.91;42.09
50636;BME280;36598;46.054;11.130;2023-02-24T09:04:16;98890.69;;;16.42;43.94
50636;BME280;36598;46.054;11.130;2023-02-24T09:09:09;98880.78;;;15.16;47.07
50636;BME280;36598;46.054;11.130;2023-02-24T09:11:41;98885.13;;;14.95;47.71
50636;BME280;36598;46.054;11.130;2023-02-24T09:14:12;98886.53;;;15.00;47.62
50636;BME280;36598;46.054;11.130;2023-02-24T09:16:44;98882.41;;;14.10;48.89
50636;BME280;36598;46.054;11.130;2023-02-24T09:19:45;98875.56;;;13.47;51.01
50636;BME280;36598;46.054;11.130;2023-02-24T09:22:13;98869.59;;;13.74;50.02
50636;BME280;36598;46.054;11.130;2023-02-24T09:24:42;98868.69;;;14.75;48.37
50636;BME280;36598;46.054;11.130;2023-02-24T09:27:08;98858.94;;;15.15;47.39
50636;BME280;36598;46.054;11.130;2023-02-24T09:29:41;98850.88;;;16.01;45.62
50636;BME280;36598;46.054;11.130;2023-02-24T09:32:13;98848.53;;;16.58;44.15
50636;BME280;36598;46.054;11.130;2023-02-24T09:34:39;98848.78;;;17.43;41.58
50636;BME280;36598;46.054;11.130;2023-02-24T09:37:09;98837.44;;;19.09;38.26
50636;BME280;36598;46.054;11.130;2023-02-24T09:39:49;98839.34;;;17.92;40.33
50636;BME280;36598;46.054;11.130;2023-02-24T09:42:18;98856.41;;;17.51;41.10
50636;BME280;36598;46.054;11.130;2023-02-24T09:44:44;98850.50;;;16.30;43.40
50636;BME280;36598;46.054;11.130;2023-02-24T09:52:47;98839.16;;;16.24;44.14
50636;BME280;36598;46.054;11.130;2023-02-24T10:00:45;98838.88;;;13.52;51.35
50636;BME280;36598;46.054;11.130;2023-02-24T10:03:27;98846.50;;;11.86;56.30
50636;BME280;36598;46.054;11.130;2023-02-24T10:08:41;98844.69;;;12.58;54.67
50636;BME280;36598;46.054;11.130;2023-02-24T10:11:09;98845.53;;;11.93;57.01
50636;BME280;36598;46.054;11.130;2023-02-24T10:13:41;98838.16;;;12.19;57.41
50636;BME280;36598;46.054;11.130;2023-02-24T10:16:10;98841.63;;;12.23;56.31
50636;BME280;36598;46.054;11.130;2023-02-24T10:18:52;98840.75;;;12.71;55.23
50636;BME280;36598;46.054;11.130;2023-02-24T10:21:59;98827.50;;;12.17;56.49
50636;BME280;36598;46.054;11.130;2023-02-24T10:29:33;98826.97;;;12.06;57.34
50636;BME280;36598;46.054;11.130;2023-02-24T10:34:57;98822.06;;;12.59;55.91
50636;BME280;36598;46.054;11.130;2023-02-24T10:37:23;98817.28;;;12.14;56.92
50636;BME280;36598;46.054;11.130;2023-02-24T10:39:54;98822.28;;;12.03;56.81
50636;BME280;36598;46.054;11.130;2023-02-24T10:42:25;98811.63;;;12.34;56.64
50636;BME280;36598;46.054;11.130;2023-02-24T10:44:51;98806.25;;;12.11;56.74
50636;BME280;36598;46.054;11.130;2023-02-24T10:47:35;98803.31;;;12.34;56.06
50636;BME280;36598;46.054;11.130;2023-02-24T10:50:02;98794.00;;;12.70;55.54
50636;BME280;36598;46.054;11.130;2023-02-24T10:55:00;98793.78;;;12.64;55.41
50636;BME280;36598;46.054;11.130;2023-02-24T10:57:40;98786.25;;;13.07;54.39
50636;BME280;36598;46.054;11.130;2023-02-24T11:00:14;98777.69;;;13.14;54.27
50636;BME280;36598;46.054;11.130;2023-02-24T11:03:05;98774.66;;;12.95;54.10
50636;BME280;36598;46.054;11.130;2023-02-24T11:05:37;98772.22;;;13.10;54.20
50636;BME280;36598;46.054;11.130;2023-02-24T11:08:17;98757.22;;;12.95;54.12
50636;BME280;36598;46.054;11.130;2023-02-24T11:13:48;98747.22;;;13.10;54.22
50636;BME280;36598;46.054;11.130;2023-02-24T11:16:39;98750.66;;;13.14;55.34
50636;BME280;36598;46.054;11.130;2023-02-24T11:19:26;98743.56;;;13.13;55.08
50636;BME280;36598;46.054;11.130;2023-02-24T11:21:53;98740.59;;;13.20;55.41
50636;BME280;36598;46.054;11.130;2023-02-24T11:24:19;98725.47;;;13.21;55.53
50636;BME280;36598;46.054;11.130;2023-02-24T11:26:44;98729.59;;;13.30;55.84
50636;BME280;36598;46.054;11.130;2023-02-24T11:32:09;98718.25;;;13.62;54.48
50636;BME280;36598;46.054;11.130;2023-02-24T11:34:54;98713.25;;;13.57;54.59
50636;BME280;36598;46.054;11.130;2023-02-24T11:39:57;98700.75;;;14.44;52.52
50636;BME280;36598;46.054;11.130;2023-02-24T11:42:32;98686.69;;;14.91;51.79
50636;BME280;36598;46.054;11.130;2023-02-24T11:45:03;98681.59;;;15.30;51.04
50636;BME280;36598;46.054;11.130;2023-02-24T11:47:34;98682.34;;;16.63;47.95
50636;BME280;36598;46.054;11.130;2023-02-24T11:50:05;98671.16;;;18.19;44.19
50636;BME280;36598;46.054;11.130;2023-02-24T11:52:37;98653.41;;;19.61;41.39
50636;BME280;36598;46.054;11.130;2023-02-24T11:55:11;98658.31;;;20.27;40.40
50636;BME280;36598;46.054;11.130;2023-02-24T11:57:39;98650.22;;;20.09;37.85
50636;BME280;36598;46.054;11.130;2023-02-24T12:00:13;98646.72;;;20.98;36.72
50636;BME280;36598;46.054;11.130;2023-02-24T12:02:44;98638.13;;;20.75;38.22
50636;BME280;36598;46.054;11.130;2023-02-24T12:05:21;98627.03;;;20.98;37.23
50636;BME280;36598;46.054;11.130;2023-02-24T12:07:49;98623.53;;;21.03;36.58
50636;BME280;36598;46.054;11.130;2023-02-24T12:13:05;98619.22;;;21.13;35.32
50636;BME280;36598;46.054;11.130;2023-02-24T12:18:25;98613.44;;;19.87;37.44
50636;BME280;36598;46.054;11.130;2023-02-24T12:33:34;98564.31;;;19.76;38.60
50636;BME280;36598;46.054;11.130;2023-02-24T12:38:37;98550.88;;;19.05;40.02
50636;BME280;36598;46.054;11.130;2023-02-24T12:46:35;98541.19;;;19.06;40.64
50636;BME280;36598;46.054;11.130;2023-02-24T12:56:51;98531.09;;;17.60;43.55
50636;BME280;36598;46.054;11.130;2023-02-24T12:59:21;98527.13;;;16.71;45.84
50636;BME280;36598;46.054;11.130;2023-02-24T13:04:23;98519.84;;;16.22;47.53
50636;BME280;36598;46.054;11.130;2023-02-24T13:14:38;98486.88;;;17.11;45.64
50636;BME280;36598;46.054;11.130;2023-02-24T13:19:33;98479.59;;;17.28;45.27
50636;BME280;36598;46.054;11.130;2023-02-24T13:24:23;98469.81;;;16.85;46.61
50636;BME280;36598;46.054;11.130;2023-02-24T13:26:49;98473.88;;;16.84;46.53
50636;BME280;36598;46.054;11.130;2023-02-24T13:29:15;98472.38;;;16.97;46.21
50636;BME280;36598;46.054;11.130;2023-02-24T13:31:41;98464.78;;;16.32;47.60
50636;BME280;36598;46.054;11.130;2023-02-24T13:34:14;98458.41;;;16.40;47.71
50636;BME280;36598;46.054;11.130;2023-02-24T13:36:52;98465.81;;;16.10;48.25
50636;BME280;36598;46.054;11.130;2023-02-24T13:39:23;98456.06;;;15.96;49.08
50636;BME280;36598;46.054;11.130;2023-02-24T13:42:00;98453.91;;;15.91;49.03
50636;BME280;36598;46.054;11.130;2023-02-24T13:44:26;98439.78;;;15.95;48.95
50636;BME280;36598;46.054;11.130;2023-02-24T13:46:59;98444.31;;;15.83;49.40
50636;BME280;36598;46.054;11.130;2023-02-24T13:52:52;98430.25;;;15.32;51.15
50636;BME280;36598;46.054;11.130;2023-02-24T14:00:35;98418.66;;;15.42;51.27
50636;BME280;36598;46.054;11.130;2023-02-24T14:03:08;98412.28;;;15.60;50.85
50636;BME280;36598;46.054;11.130;2023-02-24T14:05:35;98413.25;;;15.30;51.92
50636;BME280;36598;46.054;11.130;2023-02-24T14:08:00;98404.56;;;15.37;51.38
50636;BME280;36598;46.054;11.130;2023-02-24T14:10:27;98407.31;;;15.46;51.40
50636;BME280;36598;46.054;11.130;2023-02-24T14:13:35;98406.91;;;14.92;52.40
50636;BME280;36598;46.054;11.130;2023-02-24T14:15:42;98400.53;;;15.19;52.34
50636;BME280;36598;46.054;11.130;2023-02-24T14:18:16;98389.41;;;15.38;51.89
50636;BME280;36598;46.054;11.130;2023-02-24T14:20:42;98383.03;;;15.37;51.83
50636;BME280;36598;46.054;11.130;2023-02-24T14:23:21;98379.19;;;15.16;52.36
50636;BME280;36598;46.054;11.130;2023-02-24T14:25:47;98385.38;;;14.93;53.24
50636;BME280;36598;46.054;11.130;2023-02-24T14:28:20;98379.50;;;14.72;53.89
50636;BME280;36598;46.054;11.130;2023-02-24T14:30:51;98378.75;;;14.90;53.59
50636;BME280;36598;46.054;11.130;2023-02-24T14:33:22;98365.56;;;14.72;53.66
50636;BME280;36598;46.054;11.130;2023-02-24T14:35:49;98366.03;;;14.62;54.21
50636;BME280;36598;46.054;11.130;2023-02-24T14:40:52;98365.13;;;14.65;53.99
50636;BME280;36598;46.054;11.130;2023-02-24T14:43:17;98353.97;;;14.65;54.55
50636;BME280;36598;46.054;11.130;2023-02-24T14:45:46;98354.44;;;14.63;54.33
50636;BME280;36598;46.054;11.130;2023-02-24T14:48:22;98361.19;;;14.44;55.29
50636;BME280;36598;46.054;11.130;2023-02-24T14:50:48;98361.38;;;14.59;54.80
50636;BME280;36598;46.054;11.130;2023-02-24T14:53:14;98358.75;;;14.55;55.04
50636;BME280;36598;46.054;11.130;2023-02-24T14:55:41;98351.28;;;14.43;55.08
50636;BME280;36598;46.054;11.130;2023-02-24T14:58:12;98346.50;;;14.43;54.87
50636;BME280;36598;46.054;11.130;2023-02-24T15:00:52;98344.06;;;14.55;54.66
50636;BME280;36598;46.054;11.130;2023-02-24T15:05:59;98338.25;;;14.21;56.02
50636;BME280;36598;46.054;11.130;2023-02-24T15:10:50;98334.03;;;14.08;56.43
50636;BME280;36598;46.054;11.130;2023-02-24T15:13:17;98328.31;;;14.02;56.61
50636;BME280;36598;46.054;11.130;2023-02-24T15:15:46;98325.66;;;13.89;57.14
50636;BME280;36598;46.054;11.130;2023-02-24T15:18:15;98322.47;;;13.69;58.30
50636;BME280;36598;46.054;11.130;2023-02-24T15:20:45;98324.56;;;13.96;57.23
50636;BME280;36598;46.054;11.130;2023-02-24T15:23:28;98320.22;;;13.86;57.46
50636;BME280;36598;46.054;11.130;2023-02-24T15:25:54;98316.94;;;13.78;58.44
50636;BME280;36598;46.054;11.130;2023-02-24T15:28:22;98315.97;;;13.63;58.64
50636;BME280;36598;46.054;11.130;2023-02-24T15:30:55;98313.00;;;13.57;58.87
50636;BME280;36598;46.054;11.130;2023-02-24T15:33:22;98305.91;;;13.56;59.29
50636;BME280;36598;46.054;11.130;2023-02-24T15:35:52;98307.84;;;13.15;60.65
50636;BME280;36598;46.054;11.130;2023-02-24T15:38:22;98315.00;;;13.03;60.79
50636;BME280;36598;46.054;11.130;2023-02-24T15:40:52;98311.16;;;13.10;61.33
50636;BME280;36598;46.054;11.130;2023-02-24T15:43:29;98306.47;;;13.20;60.68
50636;BME280;36598;46.054;11.130;2023-02-24T15:45:55;98308.69;;;13.03;61.43
50636;BME280;36598;46.054;11.130;2023-02-24T15:48:21;98305.50;;;12.92;61.34
50636;BME280;36598;46.054;11.130;2023-02-24T15:50:47;98306.94;;;12.40;63.34
50636;BME280;36598;46.054;11.130;2023-02-24T15:53:14;98298.91;;;12.07;64.75
50636;BME280;36598;46.054;11.130;2023-02-24T15:55:40;98291.75;;;12.32;64.06
50636;BME280;36598;46.054;11.130;2023-02-24T15:58:05;98300.75;;;12.36;64.18
50636;BME280;36598;46.054;11.130;2023-02-24T16:00:37;98295.84;;;12.40;63.69
50636;BME280;36598;46.054;11.130;2023-02-24T16:03:02;98287.69;;;12.23;64.91
50636;BME280;36598;46.054;11.130;2023-02-24T16:05:27;98285.56;;;12.27;64.85
50636;BME280;36598;46.054;11.130;2023-02-24T16:07:53;98282.44;;;12.03;65.44
50636;BME280;36598;46.054;11.130;2023-02-24T16:10:23;98284.66;;;11.96;65.68
50636;BME280;36598;46.054;11.130;2023-02-24T16:12:52;98280.06;;;12.15;65.17
50636;BME280;36598;46.054;11.130;2023-02-24T16:15:28;98269.72;;;12.15;65.34
50636;BME280;36598;46.054;11.130;2023-02-24T16:17:54;98264.59;;;12.26;65.16
50636;BME280;36598;46.054;11.130;2023-02-24T16:20:24;98274.06;;;12.16;65.52
50636;BME280;36598;46.054;11.130;2023-02-24T16:22:56;98267.50;;;12.23;64.99
50636;BME280;36598;46.054;11.130;2023-02-24T16:25:21;98268.72;;;12.22;65.02
50636;BME280;36598;46.054;11.130;2023-02-24T16:27:47;98274.66;;;11.60;67.20
50636;BME280;36598;46.054;11.130;2023-02-24T16:30:14;98263.72;;;11.57;68.00
50636;BME280;36598;46.054;11.130;2023-02-24T16:32:40;98265.81;;;11.91;66.52
50636;BME280;36598;46.054;11.130;2023-02-24T16:35:05;98259.25;;;11.97;66.47
50636;BME280;36598;46.054;11.130;2023-02-24T16:37:37;98254.91;;;12.09;66.03
50636;BME280;36598;46.054;11.130;2023-02-24T16:40:02;98256.66;;;12.03;66.29
50636;BME280;36598;46.054;11.130;2023-02-24T16:42:34;98242.63;;;11.72;67.43
50636;BME280;36598;46.054;11.130;2023-02-24T16:45:00;98248.03;;;12.01;66.05
50636;BME280;36598;46.054;11.130;2023-02-24T16:47:25;98248.03;;;12.01;66.27
50636;BME280;36598;46.054;11.130;2023-02-24T16:49:50;98249.84;;;11.69;67.36
50636;BME280;36598;46.054;11.130;2023-02-24T16:52:19;98246.06;;;11.63;67.85
50636;BME280;36598;46.054;11.130;2023-02-24T16:54:46;98240.63;;;11.85;67.09
50636;BME280;36598;46.054;11.130;2023-02-24T16:57:12;98240.50;;;11.76;67.22
50636;BME280;36598;46.054;11.130;2023-02-24T16:59:37;98243.06;;;11.96;67.01
50636;BME280;36598;46.054;11.130;2023-02-24T17:02:02;98248.72;;;11.79;67.12
50636;BME280;36598;46.054;11.130;2023-02-24T17:04:28;98251.28;;;11.61;67.81
50636;BME280;36598;46.054;11.130;2023-02-24T17:06:55;98236.13;;;11.53;67.75
50636;BME280;36598;46.054;11.130;2023-02-24T17:09:21;98244.53;;;11.62;67.84
50636;BME280;36598;46.054;11.130;2023-02-24T17:11:46;98245.53;;;11.43;68.52
50636;BME280;36598;46.054;11.130;2023-02-24T17:14:15;98236.00;;;11.57;67.50
50636;BME280;36598;46.054;11.130;2023-02-24T17:16:41;98241.31;;;11.64;67.90
50636;BME280;36598;46.054;11.130;2023-02-24T17:19:06;98240.31;;;11.70;67.44
50636;BME280;36598;46.054;11.130;2023-02-24T17:21:32;98244.31;;;11.69;67.64
50636;BME280;36598;46.054;11.130;2023-02-24T17:23:57;98241.75;;;11.75;67.75
50636;BME280;36598;46.054;11.130;2023-02-24T17:26:22;98254.28;;;11.54;68.13
50636;BME280;36598;46.054;11.130;2023-02-24T17:28:48;98255.63;;;11.49;68.28
50636;BME280;36598;46.054;11.130;2023-02-24T17:31:13;98253.41;;;11.57;67.84
50636;BME280;36598;46.054;11.130;2023-02-24T17:33:38;98250.19;;;11.59;67.80
50636;BME280;36598;46.054;11.130;2023-02-24T17:36:05;98259.81;;;11.54;67.61
50636;BME280;36598;46.054;11.130;2023-02-24T17:38:30;98245.84;;;11.70;66.78
50636;BME280;36598;46.054;11.130;2023-02-24T17:40:55;98248.63;;;11.70;66.87
50636;BME280;36598;46.054;11.130;2023-02-24T17:43:21;98259.16;;;11.50;67.66
50636;BME280;36598;46.054;11.130;2023-02-24T17:45:47;98253.06;;;11.42;67.59
50636;BME280;36598;46.054;11.130;2023-02-24T17:48:13;98255.06;;;11.54;67.40
50636;BME280;36598;46.054;11.130;2023-02-24T17:50:42;98250.38;;;11.64;66.51
50636;BME280;36598;46.054;11.130;2023-02-24T17:53:07;98247.75;;;11.48;67.00
50636;BME280;36598;46.054;11.130;2023-02-24T17:55:33;98248.19;;;11.46;67.45
50636;BME280;36598;46.054;11.130;2023-02-24T17:57:58;98248.19;;;11.21;68.68
50636;BME280;36598;46.054;11.130;2023-02-24T18:00:24;98246.50;;;10.98;69.18
50636;BME280;36598;46.054;11.130;2023-02-24T18:02:51;98246.47;;;10.85;69.73
50636;BME280;36598;46.054;11.130;2023-02-24T18:05:16;98247.19;;;11.02;68.89
50636;BME280;36598;46.054;11.130;2023-02-24T18:07:41;98237.88;;;11.09;68.87
50636;BME280;36598;46.054;11.130;2023-02-24T18:10:07;98235.88;;;11.22;68.50
50636;BME280;36598;46.054;11.130;2023-02-24T18:12:32;98233.91;;;11.35;67.81
50636;BME280;36598;46.054;11.130;2023-02-24T18:14:57;98234.13;;;11.41;67.42
50636;BME280;36598;46.054;11.130;2023-02-24T18:17:22;98238.00;;;11.43;67.42
50636;BME280;36598;46.054;11.130;2023-02-24T18:19:51;98233.00;;;11.25;67.79
50636;BME280;36598;46.054;11.130;2023-02-24T18:22:16;98239.31;;;11.39;67.55
50636;BME280;36598;46.054;11.130;2023-02-24T18:24:41;98230.13;;;11.16;68.37
50636;BME280;36598;46.054;11.130;2023-02-24T18:27:07;98232.47;;;11.18;68.42
50636;BME280;36598;46.054;11.130;2023-02-24T18:29:33;98233.56;;;11.20;68.56
50636;BME280;36598;46.054;11.130;2023-02-24T18:31:58;98228.47;;;11.19;69.11
50636;BME280;36598;46.054;11.130;2023-02-24T18:34:23;98224.81;;;11.09;69.25
50636;BME280;36598;46.054;11.130;2023-02-24T18:36:49;98218.06;;;11.10;69.34
50636;BME280;36598;46.054;11.130;2023-02-24T18:39:14;98221.16;;;11.12;69.07
50636;BME280;36598;46.054;11.130;2023-02-24T18:41:40;98218.81;;;10.98;68.96
50636;BME280;36598;46.054;11.130;2023-02-24T18:44:05;98214.84;;;11.12;68.64
50636;BME280;36598;46.054;11.130;2023-02-24T18:46:31;98214.63;;;11.06;68.59
50636;BME280;36598;46.054;11.130;2023-02-24T18:48:56;98208.84;;;11.13;68.49
50636;BME280;36598;46.054;11.130;2023-02-24T18:51:22;98214.84;;;10.99;68.42
50636;BME280;36598;46.054;11.130;2023-02-24T18:53:50;98211.19;;;11.02;68.86
50636;BME280;36598;46.054;11.130;2023-02-24T18:56:17;98209.41;;;11.08;68.32
50636;BME280;36598;46.054;11.130;2023-02-24T18:58:42;98204.09;;;10.88;68.89
50636;BME280;36598;46.054;11.130;2023-02-24T19:01:16;98212.38;;;10.75;68.89
50636;BME280;36598;46.054;11.130;2023-02-24T19:03:44;98198.00;;;10.81;68.39
50636;BME280;36598;46.054;11.130;2023-02-24T19:06:10;98192.69;;;10.99;68.08
50636;BME280;36598;46.054;11.130;2023-02-24T19:08:36;98198.78;;;11.19;67.29
50636;BME280;36598;46.054;11.130;2023-02-24T19:11:08;98197.00;;;11.25;66.75
50636;BME280;36598;46.054;11.130;2023-02-24T19:13:34;98195.91;;;10.97;67.72
50636;BME280;36598;46.054;11.130;2023-02-24T19:15:59;98197.25;;;10.93;67.79
50636;BME280;36598;46.054;11.130;2023-02-24T19:18:24;98198.69;;;11.10;67.04
50636;BME280;36598;46.054;11.130;2023-02-24T19:20:49;98196.25;;;11.12;67.00
50636;BME280;36598;46.054;11.130;2023-02-24T19:23:15;98182.63;;;11.18;67.06
50636;BME280;36598;46.054;11.130;2023-02-24T19:25:40;98199.34;;;10.89;67.52
50636;BME280;36598;46.054;11.130;2023-02-24T19:28:05;98195.53;;;10.70;68.52
50636;BME280;36598;46.054;11.130;2023-02-24T19:30:31;98189.06;;;11.02;67.00
50636;BME280;36598;46.054;11.130;2023-02-24T19:32:56;98196.25;;;11.12;66.70
50636;BME280;36598;46.054;11.130;2023-02-24T19:35:21;98197.78;;;11.13;66.50
50636;BME280;36598;46.054;11.130;2023-02-24T19:37:47;98186.94;;;11.19;66.09
50636;BME280;36598;46.054;11.130;2023-02-24T19:40:12;98185.94;;;11.13;66.36
50636;BME280;36598;46.054;11.130;2023-02-24T19:42:37;98178.09;;;11.11;66.51
50636;BME280;36598;46.054;11.130;2023-02-24T19:45:03;98175.09;;;11.18;66.35
50636;BME280;36598;46.054;11.130;2023-02-24T19:47:28;98176.09;;;11.24;66.28